createdAt,value
2022-10-25T00:00:54.400Z,7.55
2022-10-25T00:03:57.843Z,7.78
2022-10-25T00:07:00.662Z,8.20
2022-10-25T00:10:03.526Z,7.73
2022-10-25T00:13:06.273Z,8.33
2022-10-25T00:16:15.463Z,8.95
2022-10-25T00:19:18.220Z,7.13
2022-10-25T00:22:20.968Z,8.98
2022-10-25T00:25:23.646Z,8.47
2022-10-25T00:28:26.538Z,7.27
2022-10-25T00:31:29.286Z,8.48
2022-10-25T00:34:32.001Z,7.05
2022-10-25T00:37:36.016Z,8.48
2022-10-25T00:40:38.618Z,8.13
2022-10-25T00:43:45.508Z,7.57
2022-10-25T00:46:48.180Z,7.00
2022-10-25T00:50:06.914Z,7.35
2022-10-25T00:53:20.593Z,7.25
2022-10-25T00:56:27.446Z,7.63
2022-10-25T00:59:30.663Z,8.13
2022-10-25T01:02:33.776Z,7.50
2022-10-25T01:05:52.645Z,7.88
2022-10-25T01:09:03.344Z,7.22
2022-10-25T01:12:06.420Z,6.97
2022-10-25T01:15:13.706Z,8.13
2022-10-25T01:18:29.329Z,7.63
2022-10-25T01:22:07.586Z,8.18
2022-10-25T01:25:16.052Z,8.93
2022-10-25T01:28:36.731Z,8.27
2022-10-25T01:31:48.352Z,8.87
2022-10-25T01:35:02.349Z,8.23
2022-10-25T01:38:11.247Z,7.57
2022-10-25T01:41:31.925Z,6.93
2022-10-25T01:47:42.063Z,8.50
2022-10-25T01:50:46.746Z,7.95
2022-10-25T01:53:51.960Z,6.93
2022-10-25T01:57:04.215Z,7.10
2022-10-25T02:00:20.138Z,7.90
2022-10-25T02:03:22.783Z,6.93
2022-10-25T02:06:35.137Z,6.88
2022-10-25T02:09:59.275Z,7.22
2022-10-25T02:13:10.004Z,8.43
2022-10-25T02:16:17.033Z,6.93
2022-10-25T02:19:35.705Z,7.47
2022-10-25T02:22:39.836Z,8.63
2022-10-25T02:25:43.410Z,6.38
2022-10-25T02:28:46.691Z,6.80
2022-10-25T02:31:49.493Z,7.07
2022-10-25T02:34:52.192Z,8.47
2022-10-25T02:37:54.833Z,8.32
2022-10-25T02:41:05.372Z,7.47
2022-10-25T02:44:11.622Z,7.20
2022-10-25T02:47:14.320Z,7.60
2022-10-25T02:50:21.260Z,7.47
2022-10-25T02:53:27.792Z,7.43
2022-10-25T02:56:30.544Z,6.70
2022-10-25T02:59:33.164Z,6.75
2022-10-25T03:02:35.899Z,6.97
2022-10-25T03:05:42.620Z,7.73
2022-10-25T03:08:46.519Z,6.47
2022-10-25T03:11:49.381Z,6.72
2022-10-25T03:14:52.006Z,8.00
2022-10-25T03:17:54.718Z,6.17
2022-10-25T03:20:59.210Z,6.80
2022-10-25T03:24:01.915Z,6.85
2022-10-25T03:27:07.445Z,8.20
2022-10-25T03:30:10.503Z,7.40
2022-10-25T03:33:13.883Z,6.73
2022-10-25T03:36:17.144Z,6.50
2022-10-25T03:39:19.924Z,6.22
2022-10-25T03:42:22.569Z,7.15
2022-10-25T03:45:25.187Z,7.28
2022-10-25T03:48:27.892Z,7.43
2022-10-25T03:51:30.631Z,7.00
2022-10-25T03:54:34.541Z,6.90
2022-10-25T03:57:37.244Z,6.95
2022-10-25T04:00:39.905Z,6.97
2022-10-25T04:03:45.245Z,7.53
2022-10-25T04:06:47.885Z,6.40
2022-10-25T04:09:51.503Z,7.30
2022-10-25T04:12:55.390Z,5.80
2022-10-25T04:15:58.127Z,6.72
2022-10-25T04:19:02.084Z,7.07
2022-10-25T04:22:04.979Z,7.00
2022-10-25T04:25:11.514Z,8.45
2022-10-25T04:28:16.822Z,6.72
2022-10-25T04:31:23.822Z,6.97
2022-10-25T04:34:26.523Z,6.57
2022-10-25T04:37:29.166Z,7.47
2022-10-25T04:40:32.184Z,6.53
2022-10-25T04:43:35.005Z,7.82
2022-10-25T04:46:37.727Z,7.25
2022-10-25T04:49:40.875Z,7.23
2022-10-25T04:52:43.754Z,6.67
2022-10-25T04:56:02.242Z,6.90
2022-10-25T04:59:05.423Z,6.85
2022-10-25T05:02:08.222Z,7.70
2022-10-25T05:05:10.849Z,7.37
2022-10-25T05:08:13.501Z,6.80
2022-10-25T05:11:18.814Z,6.25
2022-10-25T05:14:21.464Z,7.40
2022-10-25T05:17:24.252Z,7.30
2022-10-25T05:20:27.926Z,6.50
2022-10-25T05:23:31.885Z,7.27
2022-10-25T05:26:34.599Z,6.18
2022-10-25T05:29:37.874Z,7.15
2022-10-25T05:32:40.558Z,6.40
2022-10-25T05:35:43.301Z,7.53
2022-10-25T05:38:46.146Z,6.60
2022-10-25T05:41:49.961Z,7.35
2022-10-25T05:44:52.807Z,6.60
2022-10-25T05:47:55.486Z,6.65
2022-10-25T05:51:28.793Z,6.17
2022-10-25T05:54:35.109Z,7.20
2022-10-25T05:57:52.172Z,6.32
2022-10-25T06:00:59.713Z,6.45
2022-10-25T06:04:09.534Z,6.93
2022-10-25T06:07:12.769Z,7.43
2022-10-25T06:10:15.374Z,6.30
2022-10-25T06:13:17.975Z,7.07
2022-10-25T06:16:21.775Z,8.00
2022-10-25T06:19:24.947Z,7.15
2022-10-25T06:22:40.678Z,7.23
2022-10-25T06:25:44.194Z,6.23
2022-10-25T06:28:47.273Z,7.20
2022-10-25T06:31:50.020Z,6.50
2022-10-25T06:34:52.712Z,6.78
2022-10-25T06:38:00.885Z,6.50
2022-10-25T06:41:08.089Z,7.50
2022-10-25T06:44:10.842Z,7.65
2022-10-25T06:47:17.332Z,6.88
2022-10-25T06:50:20.534Z,6.28
2022-10-25T06:53:23.225Z,7.17
2022-10-25T06:56:27.836Z,6.23
2022-10-25T06:59:31.019Z,6.43
2022-10-25T07:02:33.831Z,6.57
2022-10-25T07:05:36.513Z,7.97
2022-10-25T07:08:41.241Z,8.73
2022-10-25T07:11:45.813Z,9.77
2022-10-25T07:14:48.462Z,7.57
2022-10-25T07:17:51.083Z,9.15
2022-10-25T07:21:01.126Z,8.30
2022-10-25T07:24:04.007Z,7.40
2022-10-25T07:27:06.733Z,7.40
2022-10-25T07:30:09.832Z,6.47
2022-10-25T07:33:13.795Z,8.05
2022-10-25T07:40:12.910Z,9.37
2022-10-25T07:43:15.539Z,7.70
2022-10-25T07:46:18.635Z,12.70
2022-10-25T07:49:21.801Z,7.70
2022-10-25T07:52:24.514Z,8.00
2022-10-25T07:55:27.544Z,7.33
2022-10-25T07:58:30.497Z,9.50
2022-10-25T08:01:33.142Z,7.97
2022-10-25T08:04:35.831Z,10.05
2022-10-25T08:07:38.415Z,8.45
2022-10-25T08:10:44.815Z,7.57
2022-10-25T08:13:50.277Z,8.47
2022-10-25T08:16:53.013Z,9.63
2022-10-25T08:19:56.565Z,7.50
2022-10-25T08:23:00.074Z,9.55
2022-10-25T08:26:02.879Z,8.40
2022-10-25T08:29:05.652Z,7.23
2022-10-25T08:32:08.272Z,9.10
2022-10-25T08:35:11.140Z,8.02
2022-10-25T08:38:13.743Z,8.02
2022-10-25T08:41:19.338Z,10.30
2022-10-25T08:44:28.120Z,7.37
2022-10-25T08:47:41.122Z,7.88
2022-10-25T08:50:50.263Z,8.60
2022-10-25T08:53:57.130Z,7.75
2022-10-25T08:57:18.240Z,8.43
2022-10-25T09:00:25.552Z,9.17
2022-10-25T09:03:28.475Z,10.52
2022-10-25T09:06:40.107Z,10.57
2022-10-25T09:16:47.698Z,11.23
2022-10-25T09:20:10.819Z,14.30
2022-10-25T09:23:41.432Z,9.60
2022-10-25T09:26:50.287Z,11.70
2022-10-25T09:30:02.607Z,9.33
2022-10-25T09:33:13.484Z,14.87
2022-10-25T09:36:16.052Z,12.32
2022-10-25T09:39:28.027Z,9.82
2022-10-25T09:42:49.526Z,8.43
2022-10-25T09:46:07.772Z,9.73
2022-10-25T09:49:32.066Z,10.33
2022-10-25T09:52:46.512Z,10.00
2022-10-25T09:55:54.586Z,8.50
2022-10-25T09:59:01.371Z,10.00
2022-10-25T10:02:04.465Z,10.17
2022-10-25T10:05:23.951Z,9.73
2022-10-25T10:08:28.407Z,10.30
2022-10-25T10:11:33.905Z,7.53
2022-10-25T10:14:41.375Z,7.75
2022-10-25T10:17:44.079Z,12.00
2022-10-25T10:21:03.850Z,10.13
2022-10-25T10:24:07.517Z,7.82
2022-10-25T10:27:22.887Z,7.68
2022-10-25T10:30:29.071Z,7.65
2022-10-25T10:33:33.301Z,8.20
2022-10-25T10:36:50.755Z,6.83
2022-10-25T10:39:59.427Z,7.78
2022-10-25T10:43:32.512Z,8.15
2022-10-25T10:46:35.336Z,9.65
2022-10-25T10:49:42.995Z,8.57
2022-10-25T10:52:48.528Z,8.30
2022-10-25T10:55:59.658Z,9.80
2022-10-25T10:59:02.301Z,6.13
2022-10-25T11:02:28.721Z,7.40
2022-10-25T11:05:37.515Z,9.37
2022-10-25T11:08:46.139Z,8.20
2022-10-25T11:12:12.106Z,5.13
2022-10-25T11:15:15.709Z,6.65
2022-10-25T11:18:25.571Z,8.65
2022-10-25T11:21:43.080Z,6.90
2022-10-25T11:24:50.680Z,6.90
2022-10-25T11:28:18.329Z,7.03
2022-10-25T11:31:47.198Z,8.23
2022-10-25T11:35:04.837Z,7.43
2022-10-25T11:38:32.250Z,7.27
2022-10-25T11:41:57.759Z,5.90
2022-10-25T11:45:29.556Z,6.25
2022-10-25T11:48:59.390Z,5.75
2022-10-25T11:52:34.610Z,7.13
2022-10-25T11:55:37.311Z,8.57
2022-10-25T11:58:53.829Z,8.00
2022-10-25T12:02:02.463Z,11.43
2022-10-25T12:05:17.752Z,13.20
2022-10-25T12:08:42.653Z,10.18
2022-10-25T12:12:04.320Z,12.57
2022-10-25T12:15:13.770Z,10.83
2022-10-25T12:18:39.905Z,11.57
2022-10-25T12:21:50.087Z,10.95
2022-10-25T12:25:04.333Z,8.55
2022-10-25T12:28:29.150Z,10.67
2022-10-25T12:31:43.061Z,11.87
2022-10-25T12:34:50.189Z,9.93
2022-10-25T12:38:03.070Z,10.18
2022-10-25T12:41:19.622Z,11.25
2022-10-25T12:44:40.730Z,9.43
2022-10-25T12:48:04.677Z,8.60
2022-10-25T12:51:25.481Z,9.35
2022-10-25T12:55:02.136Z,9.00
2022-10-25T12:58:17.675Z,10.07
2022-10-25T13:01:51.510Z,8.40
2022-10-25T13:05:11.342Z,12.63
2022-10-25T13:08:18.021Z,11.85
2022-10-25T13:11:32.928Z,11.25
2022-10-25T13:14:39.205Z,12.23
2022-10-25T13:17:49.588Z,12.67
2022-10-25T13:20:55.821Z,7.97
2022-10-25T13:24:03.175Z,8.93
2022-10-25T13:27:21.898Z,12.32
2022-10-25T13:30:32.158Z,13.43
2022-10-25T13:33:35.252Z,8.50
2022-10-25T13:36:54.780Z,9.17
2022-10-25T13:40:06.360Z,9.93
2022-10-25T13:43:21.849Z,8.88
2022-10-25T13:46:29.570Z,9.30
2022-10-25T13:49:42.902Z,8.67
2022-10-25T13:52:53.242Z,9.83
2022-10-25T13:56:18.344Z,10.68
2022-10-25T13:59:53.465Z,10.20
2022-10-25T14:03:13.197Z,9.93
2022-10-25T14:06:28.018Z,8.20
2022-10-25T14:09:40.663Z,8.30
2022-10-25T14:12:48.877Z,6.20
2022-10-25T14:16:01.049Z,7.72
2022-10-25T14:19:22.518Z,9.25
2022-10-25T14:22:34.362Z,9.87
2022-10-25T14:25:41.577Z,7.50
2022-10-25T14:28:44.255Z,7.68
2022-10-25T14:31:47.918Z,6.65
2022-10-25T14:34:53.280Z,7.75
2022-10-25T14:37:56.037Z,6.07
2022-10-25T14:41:01.043Z,7.73
2022-10-25T14:44:19.503Z,8.73
2022-10-25T14:47:26.735Z,8.60
2022-10-25T14:50:29.599Z,6.32
2022-10-25T14:53:33.302Z,8.83
2022-10-25T14:56:49.312Z,10.53
2022-10-25T15:03:16.081Z,6.88
2022-10-25T15:06:22.170Z,8.63
2022-10-25T15:12:52.922Z,8.90
2022-10-25T15:15:57.460Z,7.22
2022-10-25T15:19:09.108Z,7.70
2022-10-25T15:22:15.522Z,8.43
2022-10-25T15:25:24.173Z,8.60
2022-10-25T15:28:47.074Z,7.33
2022-10-25T15:31:49.923Z,7.35
2022-10-25T15:34:55.821Z,6.50
2022-10-25T15:37:58.648Z,7.55
2022-10-25T15:41:01.504Z,7.03
2022-10-25T15:44:04.585Z,6.00
2022-10-25T15:47:29.998Z,7.65
2022-10-25T15:50:33.324Z,6.22
2022-10-25T15:53:35.929Z,6.13
2022-10-25T15:56:38.643Z,6.97
2022-10-25T15:59:41.550Z,7.17
2022-10-25T16:02:45.416Z,7.25
2022-10-25T16:05:52.484Z,7.18
2022-10-25T16:08:55.156Z,7.72
2022-10-25T16:11:57.880Z,6.13
2022-10-25T16:15:00.717Z,5.60
2022-10-25T16:18:03.582Z,7.05
2022-10-25T16:21:06.304Z,6.68
2022-10-25T16:24:09.427Z,6.50
2022-10-25T16:27:12.958Z,5.57
2022-10-25T16:30:18.245Z,6.33
2022-10-25T16:33:21.428Z,7.57
2022-10-25T16:36:24.279Z,7.90
2022-10-25T16:39:27.177Z,5.95
2022-10-25T16:42:38.767Z,5.97
2022-10-25T16:45:45.211Z,6.73
2022-10-25T16:48:48.714Z,8.18
2022-10-25T16:51:52.571Z,7.47
2022-10-25T16:54:55.699Z,6.38
2022-10-25T16:58:00.945Z,5.80
2022-10-25T17:01:05.969Z,6.27
2022-10-25T17:04:17.434Z,6.85
2022-10-25T17:07:21.382Z,6.95
2022-10-25T17:10:26.180Z,8.57
2022-10-25T17:13:30.797Z,6.80
2022-10-25T17:16:34.647Z,6.40
2022-10-25T17:19:44.869Z,6.30
2022-10-25T17:22:50.623Z,7.35
2022-10-25T17:25:59.539Z,7.18
2022-10-25T17:29:04.833Z,5.90
2022-10-25T17:32:08.046Z,6.23
2022-10-25T17:35:12.195Z,5.97
2022-10-25T17:38:15.627Z,6.00
2022-10-25T17:41:20.323Z,7.10
2022-10-25T17:44:24.960Z,8.73
2022-10-25T17:47:29.049Z,8.57
2022-10-25T17:50:36.605Z,9.35
2022-10-25T17:53:42.657Z,8.32
2022-10-25T17:56:47.778Z,8.65
2022-10-25T17:59:52.661Z,7.83
2022-10-25T18:02:57.872Z,7.23
2022-10-25T18:06:04.963Z,7.85
2022-10-25T18:09:09.225Z,7.03
2022-10-25T18:12:13.941Z,7.53
2022-10-25T18:15:17.828Z,7.97
2022-10-25T18:18:21.909Z,9.27
2022-10-25T18:21:26.410Z,8.75
2022-10-25T18:24:34.055Z,10.13
2022-10-25T18:27:38.257Z,9.57
2022-10-25T18:30:45.196Z,10.07
2022-10-25T18:33:49.212Z,10.83
2022-10-25T18:36:53.508Z,9.73
2022-10-25T18:39:57.633Z,9.48
2022-10-25T18:43:01.350Z,9.20
2022-10-25T18:46:05.116Z,10.33
2022-10-25T18:49:12.814Z,9.33
2022-10-25T18:52:17.022Z,9.32
2022-10-25T18:55:26.977Z,10.75
2022-10-25T18:58:32.184Z,11.25
2022-10-25T19:01:36.002Z,8.10
2022-10-25T19:04:39.756Z,11.00
2022-10-25T19:07:44.286Z,10.77
2022-10-25T19:10:51.665Z,8.27
2022-10-25T19:13:56.335Z,10.93
2022-10-25T19:16:59.619Z,8.03
2022-10-25T19:20:04.196Z,9.47
2022-10-25T19:23:08.313Z,8.95
2022-10-25T19:26:18.332Z,9.88
2022-10-25T19:29:22.194Z,11.63
2022-10-25T19:32:26.679Z,9.17
2022-10-25T19:35:31.403Z,10.23
2022-10-25T19:38:36.664Z,9.77
2022-10-25T19:41:40.442Z,10.23
2022-10-25T19:44:44.637Z,9.85
2022-10-25T19:47:50.554Z,9.67
2022-10-25T19:50:55.919Z,9.57
2022-10-25T19:54:00.883Z,9.15
2022-10-25T19:57:06.681Z,9.30
2022-10-25T20:00:13.837Z,9.00
2022-10-25T20:03:17.795Z,9.17
2022-10-25T20:06:26.567Z,10.60
2022-10-25T20:09:32.249Z,9.73
2022-10-25T20:12:35.555Z,10.27
2022-10-25T20:15:58.452Z,10.10
2022-10-25T20:19:07.406Z,8.77
2022-10-25T20:22:11.296Z,10.70
2022-10-25T20:28:21.517Z,10.38
2022-10-25T20:31:26.327Z,9.75
2022-10-25T20:34:29.539Z,9.73
2022-10-25T20:37:32.807Z,9.23
2022-10-25T20:40:36.433Z,9.65
2022-10-25T20:43:41.115Z,7.63
2022-10-25T20:46:44.559Z,10.50
2022-10-25T20:49:47.657Z,8.60
2022-10-25T20:53:10.602Z,9.93
2022-10-25T20:56:14.759Z,10.73
2022-10-25T20:59:17.591Z,9.32
2022-10-25T21:02:20.975Z,10.15
2022-10-25T21:05:27.579Z,10.33
2022-10-25T21:08:31.224Z,9.37
2022-10-25T21:11:34.142Z,9.25
2022-10-25T21:14:36.900Z,9.57
2022-10-25T21:17:39.634Z,8.30
2022-10-25T21:20:43.574Z,8.73
2022-10-25T21:23:47.466Z,10.40
2022-10-25T21:26:51.686Z,9.35
2022-10-25T21:29:54.341Z,9.43
2022-10-25T21:32:56.982Z,8.98
2022-10-25T21:36:16.570Z,9.37
2022-10-25T21:39:24.013Z,9.73
2022-10-25T21:42:30.069Z,9.38
2022-10-25T21:45:32.697Z,8.80
2022-10-25T21:48:37.031Z,8.32
2022-10-25T21:51:40.256Z,10.10
2022-10-25T21:54:42.967Z,9.20
2022-10-25T21:57:51.945Z,8.50
2022-10-25T22:00:56.720Z,9.18
2022-10-25T22:03:59.767Z,7.95
2022-10-25T22:07:02.401Z,9.53
2022-10-25T22:10:05.413Z,9.20
2022-10-25T22:13:09.988Z,8.93
2022-10-25T22:16:18.179Z,9.70
2022-10-25T22:22:29.529Z,8.00
2022-10-25T22:25:32.818Z,6.93
2022-10-25T22:28:39.794Z,10.45
2022-10-25T22:31:43.958Z,9.82
2022-10-25T22:34:46.683Z,10.15
2022-10-25T22:37:49.717Z,8.63
2022-10-25T22:41:03.151Z,9.07
2022-10-25T22:44:05.828Z,8.43
2022-10-25T22:47:08.452Z,8.02
2022-10-25T22:50:11.162Z,8.55
2022-10-25T22:53:13.990Z,8.60
2022-10-25T22:56:19.236Z,7.63
2022-10-25T22:59:22.023Z,8.98
2022-10-25T23:02:25.152Z,7.93
2022-10-25T23:05:27.733Z,7.78
2022-10-25T23:08:33.650Z,7.10
2022-10-25T23:11:40.294Z,7.80
2022-10-25T23:14:43.152Z,8.02
2022-10-25T23:17:47.559Z,8.23
2022-10-25T23:20:54.645Z,8.50
2022-10-25T23:24:00.122Z,8.13
2022-10-25T23:27:03.110Z,8.30
2022-10-25T23:30:09.833Z,8.32
2022-10-25T23:33:15.606Z,7.68
2022-10-25T23:36:21.455Z,8.77
2022-10-25T23:39:27.486Z,8.37
2022-10-25T23:42:34.505Z,7.47
2022-10-25T23:45:37.422Z,7.05
2022-10-25T23:48:40.408Z,7.50
2022-10-25T23:51:43.444Z,7.30
2022-10-25T23:54:46.223Z,7.17
2022-10-25T23:57:48.910Z,7.50
